createdAt,value
2022-10-18T00:00:18.081Z,3.23
2022-10-18T00:02:44.676Z,3.35
2022-10-18T00:05:11.381Z,2.99
2022-10-18T00:07:37.951Z,2.87
2022-10-18T00:10:05.279Z,3.13
2022-10-18T00:12:36.338Z,3.00
2022-10-18T00:15:04.364Z,3.07
2022-10-18T00:17:31.390Z,2.81
2022-10-18T00:19:58.136Z,2.79
2022-10-18T00:22:25.529Z,2.77
2022-10-18T00:24:52.220Z,2.74
2022-10-18T00:27:19.157Z,2.69
2022-10-18T00:29:45.756Z,2.62
2022-10-18T00:32:12.462Z,2.41
2022-10-18T00:34:39.973Z,2.46
2022-10-18T00:37:06.869Z,1.78
2022-10-18T00:39:33.564Z,2.40
2022-10-18T00:42:00.119Z,2.26
2022-10-18T00:44:26.663Z,2.14
2022-10-18T00:46:55.678Z,1.92
2022-10-18T00:49:27.430Z,1.95
2022-10-18T00:51:59.344Z,1.82
2022-10-18T00:54:26.720Z,1.84
2022-10-18T00:56:53.364Z,1.85
2022-10-18T00:59:20.320Z,1.83
2022-10-18T01:01:46.972Z,1.78
2022-10-18T01:04:15.490Z,1.69
2022-10-18T01:06:50.267Z,1.75
2022-10-18T01:09:17.981Z,1.78
2022-10-18T01:11:47.361Z,1.81
2022-10-18T01:14:32.542Z,1.89
2022-10-18T01:17:09.127Z,1.84
2022-10-18T01:19:50.532Z,2.01
2022-10-18T01:22:34.921Z,1.75
2022-10-18T01:25:20.478Z,1.62
2022-10-18T01:27:55.957Z,1.82
2022-10-18T01:30:28.497Z,1.89
2022-10-18T01:32:58.567Z,1.34
2022-10-18T01:35:29.404Z,1.81
2022-10-18T01:37:59.401Z,1.75
2022-10-18T01:40:26.261Z,1.86
2022-10-18T01:42:55.327Z,1.99
2022-10-18T01:45:23.368Z,1.98
2022-10-18T01:47:50.122Z,1.80
2022-10-18T01:50:28.173Z,1.63
2022-10-18T01:52:54.852Z,1.54
2022-10-18T01:55:25.072Z,1.46
2022-10-18T01:58:10.365Z,1.41
2022-10-18T02:00:41.185Z,1.29
2022-10-18T02:03:15.175Z,1.21
2022-10-18T02:06:05.586Z,1.23
2022-10-18T02:08:38.422Z,1.08
2022-10-18T02:11:05.026Z,1.11
2022-10-18T02:13:36.161Z,1.07
2022-10-18T02:16:06.374Z,1.11
2022-10-18T02:18:41.902Z,1.06
2022-10-18T02:21:11.240Z,1.20
2022-10-18T02:23:38.500Z,1.12
2022-10-18T02:26:05.566Z,0.99
2022-10-18T02:28:32.186Z,1.04
2022-10-18T02:31:17.202Z,1.10
2022-10-18T02:33:52.827Z,0.94
2022-10-18T02:36:33.452Z,0.92
2022-10-18T02:39:04.662Z,1.03
2022-10-18T02:41:31.676Z,0.80
2022-10-18T02:43:58.260Z,0.76
2022-10-18T02:46:24.937Z,0.76
2022-10-18T02:48:51.576Z,0.72
2022-10-18T02:51:18.185Z,0.61
2022-10-18T02:53:44.790Z,0.57
2022-10-18T02:56:11.398Z,0.71
2022-10-18T02:58:38.001Z,0.84
2022-10-18T03:01:04.556Z,0.92
2022-10-18T03:03:31.148Z,0.86
2022-10-18T03:05:57.746Z,0.90
2022-10-18T03:08:24.361Z,0.75
2022-10-18T03:10:50.990Z,0.85
2022-10-18T03:13:18.296Z,0.88
2022-10-18T03:15:45.025Z,0.94
2022-10-18T03:18:11.570Z,0.99
2022-10-18T03:20:38.147Z,1.04
2022-10-18T03:23:05.177Z,0.91
2022-10-18T03:25:31.978Z,0.94
2022-10-18T03:27:58.613Z,1.00
2022-10-18T03:30:25.533Z,0.93
2022-10-18T03:32:52.177Z,0.98
2022-10-18T03:35:19.058Z,0.95
2022-10-18T03:37:45.827Z,0.78
2022-10-18T03:40:12.429Z,0.74
2022-10-18T03:42:39.001Z,0.83
2022-10-18T03:45:06.010Z,0.76
2022-10-18T03:47:32.656Z,0.70
2022-10-18T03:49:59.190Z,0.48
2022-10-18T03:52:25.766Z,0.52
2022-10-18T03:54:52.443Z,0.59
2022-10-18T03:57:19.072Z,0.52
2022-10-18T03:59:45.621Z,0.62
2022-10-18T04:02:12.260Z,0.52
2022-10-18T04:04:38.877Z,0.68
2022-10-18T04:07:05.682Z,0.52
2022-10-18T04:09:32.278Z,0.35
2022-10-18T04:11:58.899Z,0.37
2022-10-18T04:14:26.599Z,0.36
2022-10-18T04:16:54.364Z,0.28
2022-10-18T04:19:20.995Z,0.25
2022-10-18T04:21:49.186Z,0.24
2022-10-18T04:24:18.930Z,0.21
2022-10-18T04:26:45.757Z,0.27
2022-10-18T04:29:12.503Z,0.26
2022-10-18T04:31:40.965Z,0.13
2022-10-18T04:34:07.616Z,0.02
2022-10-18T04:36:34.245Z,-0.11
2022-10-18T04:39:00.827Z,-0.11
2022-10-18T04:41:27.431Z,-0.08
2022-10-18T04:43:54.448Z,-0.04
2022-10-18T04:46:21.077Z,0.03
2022-10-18T04:48:47.688Z,0.07
2022-10-18T04:51:14.490Z,0.05
2022-10-18T04:53:41.044Z,0.21
2022-10-18T04:56:07.898Z,0.22
2022-10-18T04:58:34.616Z,0.30
2022-10-18T05:01:04.384Z,0.13
2022-10-18T05:03:32.563Z,0.02
2022-10-18T05:06:03.069Z,0.09
2022-10-18T05:08:32.628Z,0.06
2022-10-18T05:10:59.728Z,0.23
2022-10-18T05:13:26.502Z,0.36
2022-10-18T05:15:53.129Z,0.53
2022-10-18T05:18:20.120Z,0.80
2022-10-18T05:20:46.804Z,0.88
2022-10-18T05:23:13.447Z,0.99
2022-10-18T05:25:40.894Z,0.97
2022-10-18T05:28:15.621Z,1.14
2022-10-18T05:30:54.089Z,1.31
2022-10-18T05:33:20.810Z,1.37
2022-10-18T05:35:47.721Z,1.45
2022-10-18T05:38:14.313Z,1.47
2022-10-18T05:40:40.933Z,1.73
2022-10-18T05:43:07.549Z,1.97
2022-10-18T05:45:34.165Z,2.08
2022-10-18T05:48:00.785Z,2.22
2022-10-18T05:50:27.486Z,2.44
2022-10-18T05:53:02.688Z,2.75
2022-10-18T05:55:38.931Z,3.11
2022-10-18T05:58:05.520Z,3.29
2022-10-18T06:00:32.368Z,3.41
2022-10-18T06:03:00.365Z,3.54
2022-10-18T06:05:27.920Z,4.02
2022-10-18T06:07:54.798Z,4.91
2022-10-18T06:10:21.450Z,5.44
2022-10-18T06:13:01.173Z,3.69
2022-10-18T06:15:27.815Z,3.13
2022-10-18T06:17:55.431Z,3.32
2022-10-18T06:20:22.019Z,3.28
2022-10-18T06:22:51.658Z,3.59
2022-10-18T06:25:18.234Z,3.66
2022-10-18T06:27:44.815Z,3.99
2022-10-18T06:30:11.527Z,4.22
2022-10-18T06:32:38.137Z,4.19
2022-10-18T06:35:04.911Z,4.11
2022-10-18T06:37:31.849Z,4.19
2022-10-18T06:39:58.628Z,4.26
2022-10-18T06:42:25.309Z,4.60
2022-10-18T06:44:51.926Z,4.66
2022-10-18T06:47:18.534Z,5.38
2022-10-18T06:49:45.092Z,5.36
2022-10-18T06:52:11.682Z,5.75
2022-10-18T06:54:38.232Z,5.65
2022-10-18T06:57:04.873Z,5.87
2022-10-18T06:59:31.643Z,6.34
2022-10-18T07:01:58.347Z,6.81
2022-10-18T07:04:27.749Z,6.32
2022-10-18T07:06:54.593Z,6.48
2022-10-18T07:09:21.205Z,6.93
2022-10-18T07:11:47.805Z,6.92
2022-10-18T07:14:16.424Z,6.96
2022-10-18T07:16:43.200Z,7.40
2022-10-18T07:19:09.803Z,7.85
2022-10-18T07:21:36.650Z,7.98
2022-10-18T07:24:03.257Z,8.07
2022-10-18T07:26:31.716Z,7.95
2022-10-18T07:29:00.505Z,8.34
2022-10-18T07:31:27.537Z,8.78
2022-10-18T07:33:54.245Z,9.01
2022-10-18T07:36:24.701Z,9.23
2022-10-18T07:38:52.179Z,8.81
2022-10-18T07:41:19.103Z,9.12
2022-10-18T07:43:46.858Z,9.58
2022-10-18T07:46:14.174Z,9.69
2022-10-18T07:48:40.901Z,9.75
2022-10-18T07:51:07.555Z,10.28
2022-10-18T07:53:34.767Z,10.56
2022-10-18T07:56:04.706Z,11.07
2022-10-18T07:58:34.411Z,10.21
2022-10-18T08:01:05.173Z,10.56
2022-10-18T08:03:31.965Z,10.79
2022-10-18T08:05:58.549Z,10.92
2022-10-18T08:08:25.738Z,11.27
2022-10-18T08:10:52.626Z,11.50
2022-10-18T08:13:19.325Z,11.74
2022-10-18T08:15:46.115Z,12.03
2022-10-18T08:18:12.864Z,12.02
2022-10-18T08:20:43.354Z,11.82
2022-10-18T08:23:10.242Z,12.07
2022-10-18T08:25:37.052Z,12.18
2022-10-18T08:28:03.733Z,12.36
2022-10-18T08:30:30.507Z,12.90
2022-10-18T08:32:57.120Z,12.53
2022-10-18T08:35:23.745Z,12.86
2022-10-18T08:37:50.395Z,13.01
2022-10-18T08:40:17.172Z,12.67
2022-10-18T08:42:49.792Z,13.09
2022-10-18T11:17:08.086Z,24.17
2022-10-18T11:19:53.556Z,23.49
2022-10-18T11:22:22.158Z,22.41
2022-10-18T11:24:48.747Z,22.03
2022-10-18T11:27:27.418Z,21.62
2022-10-18T11:30:03.020Z,21.48
2022-10-18T11:32:45.783Z,21.46
2022-10-18T11:35:23.735Z,21.49
2022-10-18T11:38:01.802Z,21.64
2022-10-18T11:40:34.645Z,21.69
2022-10-18T11:43:16.552Z,21.86
2022-10-18T11:46:04.312Z,21.93
2022-10-18T11:48:48.599Z,22.13
2022-10-18T11:51:15.141Z,22.14
2022-10-18T11:53:49.563Z,22.33
2022-10-18T11:56:21.344Z,22.46
2022-10-18T11:58:53.723Z,22.50
2022-10-18T12:01:28.911Z,22.60
2022-10-18T12:04:12.010Z,22.77
2022-10-18T12:06:47.072Z,22.82
2022-10-18T12:09:25.779Z,23.07
2022-10-18T12:11:57.090Z,23.28
2022-10-18T12:14:30.243Z,23.21
2022-10-18T12:17:28.011Z,23.67
2022-10-18T12:19:47.795Z,23.87
2022-10-18T12:23:11.695Z,24.20
2022-10-18T12:25:40.395Z,24.63
2022-10-18T12:28:06.993Z,25.22
2022-10-18T12:30:48.132Z,25.84
2022-10-18T12:33:33.202Z,27.34
2022-10-18T12:36:03.456Z,28.29
2022-10-18T12:38:35.797Z,29.85
2022-10-18T12:41:02.950Z,31.04
2022-10-18T12:43:34.203Z,31.58
2022-10-18T12:46:13.814Z,32.60
2022-10-18T12:48:45.833Z,32.53
2022-10-18T12:51:15.374Z,33.88
2022-10-18T12:53:44.953Z,34.27
2022-10-18T12:56:29.779Z,34.78
2022-10-18T12:59:17.518Z,35.37
2022-10-18T13:01:53.121Z,35.76
2022-10-18T13:04:29.040Z,35.73
2022-10-18T13:06:58.737Z,36.53
2022-10-18T13:09:26.669Z,36.37
2022-10-18T13:12:13.175Z,36.16
2022-10-18T13:14:48.237Z,36.22
2022-10-18T13:17:37.463Z,36.47
2022-10-18T13:20:27.404Z,36.09
2022-10-18T13:23:00.223Z,36.60
2022-10-18T13:25:46.339Z,36.77
2022-10-18T13:28:12.876Z,36.53
2022-10-18T13:30:51.206Z,36.68
2022-10-18T13:33:25.954Z,36.79
2022-10-18T13:35:56.047Z,37.47
2022-10-18T13:38:37.853Z,37.31
2022-10-18T13:41:06.825Z,37.89
2022-10-18T13:43:52.636Z,37.40
2022-10-18T13:46:20.087Z,37.77
2022-10-18T13:48:54.046Z,37.81
2022-10-18T13:51:20.679Z,37.56
2022-10-18T13:53:54.896Z,37.30
2022-10-18T13:56:34.864Z,37.96
2022-10-18T13:59:21.769Z,37.38
2022-10-18T14:02:00.569Z,37.33
2022-10-18T14:04:45.888Z,38.15
2022-10-18T14:07:12.633Z,37.70
2022-10-18T14:09:49.958Z,37.80
2022-10-18T14:12:34.479Z,38.57
2022-10-18T14:15:15.845Z,37.80
2022-10-18T14:17:51.573Z,36.94
2022-10-18T14:20:29.441Z,37.00
2022-10-18T14:23:05.291Z,36.89
2022-10-18T14:25:33.868Z,36.88
2022-10-18T14:28:13.198Z,36.72
2022-10-18T14:31:12.331Z,36.61
2022-10-18T14:33:38.923Z,36.64
2022-10-18T14:36:14.615Z,36.16
2022-10-18T14:39:11.742Z,35.49
2022-10-18T14:41:47.604Z,35.63
2022-10-18T14:44:14.215Z,34.66
2022-10-18T14:46:46.724Z,35.73
2022-10-18T14:49:14.439Z,34.73
2022-10-18T14:51:42.617Z,34.20
2022-10-18T14:54:20.262Z,33.25
2022-10-18T14:56:47.905Z,33.50
2022-10-18T14:59:20.787Z,33.21
2022-10-18T15:02:14.030Z,32.26
2022-10-18T15:04:43.734Z,31.42
2022-10-18T15:07:15.543Z,30.54
2022-10-18T15:09:42.749Z,29.17
2022-10-18T15:12:12.407Z,28.34
2022-10-18T15:14:40.255Z,27.83
2022-10-18T15:17:24.407Z,27.31
2022-10-18T15:20:05.972Z,26.48
2022-10-18T15:22:33.813Z,25.91
2022-10-18T15:25:18.200Z,24.87
2022-10-18T15:27:46.774Z,24.48
2022-10-18T15:30:28.244Z,24.01
2022-10-18T15:32:56.519Z,23.24
2022-10-18T15:35:33.513Z,22.85
2022-10-18T15:38:04.282Z,22.13
2022-10-18T15:40:32.839Z,21.58
2022-10-18T15:43:01.424Z,21.28
2022-10-18T15:45:32.839Z,20.78
2022-10-18T15:48:16.667Z,20.34
2022-10-18T15:50:47.783Z,19.63
2022-10-18T15:53:20.803Z,19.58
2022-10-18T15:55:55.720Z,18.79
2022-10-18T15:58:22.389Z,18.44
2022-10-18T16:00:49.656Z,18.36
2022-10-18T16:03:17.037Z,18.22
2022-10-18T16:05:43.906Z,18.22
2022-10-18T16:08:18.541Z,17.83
2022-10-18T16:10:45.143Z,17.63
2022-10-18T16:13:11.768Z,17.28
2022-10-18T16:15:38.470Z,17.13
2022-10-18T16:18:05.037Z,16.75
2022-10-18T16:20:31.654Z,16.36
2022-10-18T16:22:58.321Z,16.51
2022-10-18T16:25:25.023Z,16.21
2022-10-18T16:27:51.614Z,16.11
2022-10-18T16:30:20.136Z,16.14
2022-10-18T16:32:48.868Z,16.11
2022-10-18T16:35:15.601Z,15.76
2022-10-18T16:37:43.320Z,15.60
2022-10-18T16:40:20.212Z,15.27
2022-10-18T16:42:46.892Z,15.07
2022-10-18T16:45:13.489Z,14.86
2022-10-18T16:47:40.219Z,14.51
2022-10-18T16:50:08.759Z,14.30
2022-10-18T16:52:35.872Z,14.21
2022-10-18T16:55:02.534Z,14.23
2022-10-18T16:57:30.867Z,13.89
2022-10-18T16:59:57.674Z,13.80
2022-10-18T17:02:24.373Z,13.70
2022-10-18T17:04:52.002Z,13.67
2022-10-18T17:07:23.377Z,13.54
2022-10-18T17:09:49.978Z,13.31
2022-10-18T17:12:16.639Z,13.25
2022-10-18T17:14:43.296Z,13.06
2022-10-18T17:17:13.162Z,12.98
2022-10-18T17:19:39.848Z,12.82
2022-10-18T17:22:06.584Z,12.73
2022-10-18T17:24:33.306Z,12.64
2022-10-18T17:27:00.496Z,12.49
2022-10-18T17:29:27.438Z,12.25
2022-10-18T17:31:54.286Z,12.07
2022-10-18T17:34:21.593Z,12.05
2022-10-18T17:36:48.344Z,12.21
2022-10-18T17:39:15.105Z,11.92
2022-10-18T17:41:41.742Z,11.97
2022-10-18T17:44:08.466Z,11.81
2022-10-18T17:46:35.128Z,11.72
2022-10-18T17:49:02.158Z,11.64
2022-10-18T17:51:28.955Z,11.49
2022-10-18T17:53:55.624Z,11.48
2022-10-18T17:56:22.275Z,11.35
2022-10-18T17:58:52.009Z,11.10
2022-10-18T18:01:20.121Z,11.10
2022-10-18T18:03:49.793Z,11.06
2022-10-18T18:06:18.340Z,11.05
2022-10-18T18:08:45.388Z,10.93
2022-10-18T18:11:12.039Z,10.67
2022-10-18T18:13:38.870Z,10.79
2022-10-18T18:16:22.369Z,10.76
2022-10-18T18:18:50.285Z,10.67
2022-10-18T18:21:17.587Z,10.56
2022-10-18T18:23:44.356Z,10.52
2022-10-18T18:26:13.921Z,10.51
2022-10-18T18:28:40.771Z,10.39
2022-10-18T18:31:08.631Z,10.35
2022-10-18T18:33:35.871Z,10.30
2022-10-18T18:36:04.899Z,10.16
2022-10-18T18:38:31.771Z,10.13
2022-10-18T18:41:08.832Z,10.07
2022-10-18T18:43:36.243Z,10.01
2022-10-18T18:46:02.858Z,9.99
2022-10-18T18:48:31.215Z,9.74
2022-10-18T18:50:57.919Z,9.82
2022-10-18T18:53:28.577Z,9.77
2022-10-18T18:56:04.403Z,9.70
2022-10-18T18:58:31.784Z,9.65
2022-10-18T19:00:58.444Z,9.69
2022-10-18T19:03:25.207Z,9.56
2022-10-18T19:05:51.880Z,9.58
2022-10-18T19:08:18.617Z,9.33
2022-10-18T19:10:49.026Z,9.56
2022-10-18T19:13:15.775Z,9.40
2022-10-18T19:15:42.421Z,9.26
2022-10-18T19:18:09.035Z,9.37
2022-10-18T19:20:35.675Z,9.23
2022-10-18T19:23:02.245Z,9.10
2022-10-18T19:25:29.105Z,9.08
2022-10-18T19:27:55.752Z,9.00
2022-10-18T19:30:22.508Z,8.93
2022-10-18T19:32:52.699Z,8.78
2022-10-18T19:35:19.317Z,8.66
2022-10-18T19:37:45.989Z,8.61
2022-10-18T19:40:12.604Z,8.59
2022-10-18T19:42:39.942Z,8.50
2022-10-18T19:45:07.941Z,8.44
2022-10-18T19:47:34.669Z,8.37
2022-10-18T19:50:01.339Z,8.34
2022-10-18T19:52:28.728Z,8.33
2022-10-18T19:54:55.815Z,8.26
2022-10-18T19:57:22.560Z,8.27
2022-10-18T19:59:50.528Z,8.31
2022-10-18T20:02:17.233Z,8.33
2022-10-18T20:04:43.914Z,8.20
2022-10-18T20:07:10.442Z,7.82
2022-10-18T20:09:36.978Z,8.13
2022-10-18T20:12:03.661Z,8.09
2022-10-18T20:14:30.280Z,8.08
2022-10-18T20:16:57.041Z,8.13
2022-10-18T20:19:23.706Z,8.10
2022-10-18T20:21:50.378Z,8.10
2022-10-18T20:24:17.012Z,8.22
2022-10-18T20:26:43.778Z,8.08
2022-10-18T20:29:10.745Z,8.00
2022-10-18T20:31:39.161Z,7.85
2022-10-18T20:34:07.802Z,7.88
2022-10-18T20:36:34.826Z,7.77
2022-10-18T20:39:02.071Z,7.68
2022-10-18T20:41:29.916Z,7.76
2022-10-18T20:44:00.272Z,7.61
2022-10-18T20:46:29.345Z,7.67
2022-10-18T20:48:56.080Z,7.74
2022-10-18T20:51:23.178Z,7.55
2022-10-18T20:53:50.189Z,7.63
2022-10-18T20:56:20.279Z,7.50
2022-10-18T20:58:47.856Z,7.43
2022-10-18T21:01:21.404Z,7.45
2022-10-18T21:03:49.079Z,7.51
2022-10-18T21:06:22.918Z,7.38
2022-10-18T21:08:53.415Z,7.20
2022-10-18T21:11:20.069Z,7.17
2022-10-18T21:13:50.035Z,7.28
2022-10-18T21:16:16.716Z,7.26
2022-10-18T21:18:43.257Z,7.25
2022-10-18T21:21:14.298Z,7.31
2022-10-18T21:23:41.669Z,7.30
2022-10-18T21:26:09.037Z,7.30
2022-10-18T21:28:35.793Z,7.38
2022-10-18T21:31:13.204Z,7.28
2022-10-18T21:33:40.183Z,7.21
2022-10-18T21:36:06.970Z,7.22
2022-10-18T21:38:33.694Z,7.15
2022-10-18T21:41:00.714Z,7.07
2022-10-18T21:43:27.628Z,7.12
2022-10-18T21:45:59.054Z,7.12
2022-10-18T21:48:26.338Z,6.99
2022-10-18T21:50:53.153Z,7.03
2022-10-18T21:53:20.905Z,6.97
2022-10-18T21:55:48.298Z,6.97
2022-10-18T21:58:14.875Z,6.96
2022-10-18T22:00:41.645Z,6.99
2022-10-18T22:03:09.077Z,6.81
2022-10-18T22:05:35.822Z,6.69
2022-10-18T22:08:02.605Z,6.22
2022-10-18T22:10:29.193Z,6.14
2022-10-18T22:12:55.798Z,6.01
2022-10-18T22:15:22.362Z,5.90
2022-10-18T22:17:48.933Z,5.67
2022-10-18T22:20:15.507Z,5.80
2022-10-18T22:22:42.118Z,5.93
2022-10-18T22:25:08.916Z,5.86
2022-10-18T22:27:35.949Z,5.83
2022-10-18T22:30:03.036Z,5.80
2022-10-18T22:32:29.596Z,5.89
2022-10-18T22:34:56.173Z,5.90
2022-10-18T22:37:22.775Z,5.74
2022-10-18T22:39:49.302Z,5.58
2022-10-18T22:42:15.879Z,5.71
2022-10-18T22:44:42.415Z,5.64
2022-10-18T22:47:09.008Z,5.51
2022-10-18T22:49:36.542Z,5.46
2022-10-18T22:52:05.269Z,5.44
2022-10-18T22:54:31.876Z,5.29
2022-10-18T22:56:58.450Z,5.29
2022-10-18T22:59:25.115Z,5.22
2022-10-18T23:01:51.761Z,5.13
2022-10-18T23:04:18.396Z,5.14
2022-10-18T23:06:45.096Z,5.20
2022-10-18T23:09:12.155Z,5.06
2022-10-18T23:11:38.761Z,5.16
2022-10-18T23:14:06.487Z,5.01
2022-10-18T23:16:33.455Z,4.82
2022-10-18T23:19:00.286Z,4.76
2022-10-18T23:21:28.764Z,4.66
2022-10-18T23:23:56.508Z,4.70
2022-10-18T23:26:24.401Z,4.56
2022-10-18T23:28:51.693Z,4.48
2022-10-18T23:31:18.874Z,4.49
2022-10-18T23:33:46.226Z,4.35
2022-10-18T23:36:12.908Z,4.23
2022-10-18T23:38:39.579Z,4.16
2022-10-18T23:41:06.928Z,4.17
2022-10-18T23:43:33.894Z,4.11
2022-10-18T23:46:00.994Z,4.04
2022-10-18T23:48:27.733Z,4.05
2022-10-18T23:50:54.331Z,4.02
2022-10-18T23:53:21.271Z,4.00
2022-10-18T23:55:55.204Z,3.96
2022-10-18T23:58:22.003Z,3.99
